sensor_id;sensor_type;location;lat;lon;timestamp;P1;durP1;ratioP1;P2;durP2;ratioP2
36001;SDS011;22070;50.922;5.430;2022-08-25T00:01:00;7.35;;;3.78;;
36001;SDS011;22070;50.922;5.430;2022-08-25T00:03:26;7.60;;;3.70;;
36001;SDS011;22070;50.922;5.430;2022-08-25T00:05:52;5.50;;;3.30;;
36001;SDS011;22070;50.922;5.430;2022-08-25T00:08:18;6.73;;;3.50;;
36001;SDS011;22070;50.922;5.430;2022-08-25T00:10:43;6.97;;;3.80;;
36001;SDS011;22070;50.922;5.430;2022-08-25T00:13:09;8.47;;;3.60;;
36001;SDS011;22070;50.922;5.430;2022-08-25T00:15:35;7.73;;;3.90;;
36001;SDS011;22070;50.922;5.430;2022-08-25T00:20:28;5.25;;;3.65;;
36001;SDS011;22070;50.922;5.430;2022-08-25T00:22:54;7.68;;;4.03;;
36001;SDS011;22070;50.922;5.430;2022-08-25T00:25:20;8.30;;;3.60;;
36001;SDS011;22070;50.922;5.430;2022-08-25T00:27:48;5.72;;;3.65;;
36001;SDS011;22070;50.922;5.430;2022-08-25T00:30:15;8.27;;;3.97;;
36001;SDS011;22070;50.922;5.430;2022-08-25T00:32:42;7.05;;;4.10;;
36001;SDS011;22070;50.922;5.430;2022-08-25T00:35:08;7.50;;;3.83;;
36001;SDS011;22070;50.922;5.430;2022-08-25T00:37:34;6.20;;;3.67;;
36001;SDS011;22070;50.922;5.430;2022-08-25T00:40:03;4.97;;;3.53;;
36001;SDS011;22070;50.922;5.430;2022-08-25T00:42:29;5.28;;;4.00;;
36001;SDS011;22070;50.922;5.430;2022-08-25T00:44:55;8.13;;;3.72;;
36001;SDS011;22070;50.922;5.430;2022-08-25T00:47:22;5.35;;;3.72;;
36001;SDS011;22070;50.922;5.430;2022-08-25T00:49:50;8.38;;;4.07;;
36001;SDS011;22070;50.922;5.430;2022-08-25T00:54:54;6.50;;;3.60;;
36001;SDS011;22070;50.922;5.430;2022-08-25T00:57:29;6.15;;;4.32;;
36001;SDS011;22070;50.922;5.430;2022-08-25T00:59:58;10.70;;;4.43;;
36001;SDS011;22070;50.922;5.430;2022-08-25T01:02:24;9.32;;;3.90;;
36001;SDS011;22070;50.922;5.430;2022-08-25T01:04:50;6.43;;;3.63;;
36001;SDS011;22070;50.922;5.430;2022-08-25T01:07:17;7.77;;;4.50;;
36001;SDS011;22070;50.922;5.430;2022-08-25T01:09:45;4.70;;;4.25;;
36001;SDS011;22070;50.922;5.430;2022-08-25T01:12:13;5.47;;;3.92;;
36001;SDS011;22070;50.922;5.430;2022-08-25T01:14:39;5.07;;;4.18;;
36001;SDS011;22070;50.922;5.430;2022-08-25T01:19:31;6.60;;;4.13;;
36001;SDS011;22070;50.922;5.430;2022-08-25T01:21:57;5.07;;;4.47;;
36001;SDS011;22070;50.922;5.430;2022-08-25T01:24:33;11.40;;;4.90;;
36001;SDS011;22070;50.922;5.430;2022-08-25T01:27:06;11.27;;;4.50;;
36001;SDS011;22070;50.922;5.430;2022-08-25T01:29:32;7.45;;;4.43;;
36001;SDS011;22070;50.922;5.430;2022-08-25T01:32:01;11.27;;;4.50;;
36001;SDS011;22070;50.922;5.430;2022-08-25T01:34:31;11.05;;;4.47;;
36001;SDS011;22070;50.922;5.430;2022-08-25T01:36:58;12.55;;;4.40;;
36001;SDS011;22070;50.922;5.430;2022-08-25T01:39:25;9.43;;;4.45;;
36001;SDS011;22070;50.922;5.430;2022-08-25T01:44:32;9.60;;;4.97;;
36001;SDS011;22070;50.922;5.430;2022-08-25T01:46:59;8.43;;;4.70;;
36001;SDS011;22070;50.922;5.430;2022-08-25T01:49:26;9.55;;;4.80;;
36001;SDS011;22070;50.922;5.430;2022-08-25T01:51:56;8.03;;;4.93;;
36001;SDS011;22070;50.922;5.430;2022-08-25T01:54:29;11.25;;;5.05;;
36001;SDS011;22070;50.922;5.430;2022-08-25T01:56:54;9.80;;;5.33;;
36001;SDS011;22070;50.922;5.430;2022-08-25T01:59:21;8.00;;;4.70;;
36001;SDS011;22070;50.922;5.430;2022-08-25T02:01:47;6.10;;;4.50;;
36001;SDS011;22070;50.922;5.430;2022-08-25T02:04:13;7.27;;;5.00;;
36001;SDS011;22070;50.922;5.430;2022-08-25T02:06:39;6.30;;;4.83;;
36001;SDS011;22070;50.922;5.430;2022-08-25T02:09:09;7.47;;;4.47;;
36001;SDS011;22070;50.922;5.430;2022-08-25T02:11:37;6.13;;;4.82;;
36001;SDS011;22070;50.922;5.430;2022-08-25T02:14:06;8.38;;;5.63;;
36001;SDS011;22070;50.922;5.430;2022-08-25T02:16:34;7.63;;;5.22;;
36001;SDS011;22070;50.922;5.430;2022-08-25T02:19:01;7.15;;;4.90;;
36001;SDS011;22070;50.922;5.430;2022-08-25T02:21:28;6.85;;;5.00;;
36001;SDS011;22070;50.922;5.430;2022-08-25T02:23:53;9.90;;;5.47;;
36001;SDS011;22070;50.922;5.430;2022-08-25T02:26:21;8.10;;;4.90;;
36001;SDS011;22070;50.922;5.430;2022-08-25T02:28:47;8.90;;;5.40;;
36001;SDS011;22070;50.922;5.430;2022-08-25T02:31:14;8.85;;;5.60;;
36001;SDS011;22070;50.922;5.430;2022-08-25T02:33:41;5.82;;;5.18;;
36001;SDS011;22070;50.922;5.430;2022-08-25T02:36:07;7.30;;;5.40;;
36001;SDS011;22070;50.922;5.430;2022-08-25T02:38:34;6.85;;;5.05;;
36001;SDS011;22070;50.922;5.430;2022-08-25T02:41:00;7.18;;;5.43;;
36001;SDS011;22070;50.922;5.430;2022-08-25T02:43:33;9.13;;;5.45;;
36001;SDS011;22070;50.922;5.430;2022-08-25T02:45:58;7.23;;;5.27;;
36001;SDS011;22070;50.922;5.430;2022-08-25T02:48:24;10.00;;;5.13;;
36001;SDS011;22070;50.922;5.430;2022-08-25T02:50:50;6.67;;;5.20;;
36001;SDS011;22070;50.922;5.430;2022-08-25T02:53:17;6.38;;;5.15;;
36001;SDS011;22070;50.922;5.430;2022-08-25T02:55:46;6.53;;;5.22;;
36001;SDS011;22070;50.922;5.430;2022-08-25T02:58:12;10.43;;;5.53;;
36001;SDS011;22070;50.922;5.430;2022-08-25T03:00:39;7.07;;;5.40;;
36001;SDS011;22070;50.922;5.430;2022-08-25T03:03:06;9.15;;;5.13;;
36001;SDS011;22070;50.922;5.430;2022-08-25T03:05:32;7.63;;;5.60;;
36001;SDS011;22070;50.922;5.430;2022-08-25T03:07:58;7.40;;;5.70;;
36001;SDS011;22070;50.922;5.430;2022-08-25T03:10:24;10.38;;;5.90;;
36001;SDS011;22070;50.922;5.430;2022-08-25T03:12:50;8.80;;;5.90;;
36001;SDS011;22070;50.922;5.430;2022-08-25T03:15:16;11.17;;;5.50;;
36001;SDS011;22070;50.922;5.430;2022-08-25T03:17:42;10.55;;;5.88;;
36001;SDS011;22070;50.922;5.430;2022-08-25T03:20:09;7.93;;;5.57;;
36001;SDS011;22070;50.922;5.430;2022-08-25T03:22:35;5.87;;;5.33;;
36001;SDS011;22070;50.922;5.430;2022-08-25T03:25:01;10.93;;;5.65;;
36001;SDS011;22070;50.922;5.430;2022-08-25T03:27:46;14.40;;;6.07;;
36001;SDS011;22070;50.922;5.430;2022-08-25T03:30:13;13.13;;;6.68;;
36001;SDS011;22070;50.922;5.430;2022-08-25T03:32:40;13.02;;;6.05;;
36001;SDS011;22070;50.922;5.430;2022-08-25T03:35:06;8.57;;;6.20;;
36001;SDS011;22070;50.922;5.430;2022-08-25T03:37:32;8.73;;;5.97;;
36001;SDS011;22070;50.922;5.430;2022-08-25T03:39:58;7.77;;;5.73;;
36001;SDS011;22070;50.922;5.430;2022-08-25T03:42:24;7.93;;;6.00;;
36001;SDS011;22070;50.922;5.430;2022-08-25T03:44:50;8.40;;;6.05;;
36001;SDS011;22070;50.922;5.430;2022-08-25T03:47:16;10.45;;;6.25;;
36001;SDS011;22070;50.922;5.430;2022-08-25T03:49:41;7.77;;;5.87;;
36001;SDS011;22070;50.922;5.430;2022-08-25T03:52:07;9.67;;;5.97;;
36001;SDS011;22070;50.922;5.430;2022-08-25T03:54:33;9.35;;;6.43;;
36001;SDS011;22070;50.922;5.430;2022-08-25T03:56:58;7.07;;;6.17;;
36001;SDS011;22070;50.922;5.430;2022-08-25T03:59:24;10.53;;;5.70;;
36001;SDS011;22070;50.922;5.430;2022-08-25T04:01:51;9.30;;;5.90;;
36001;SDS011;22070;50.922;5.430;2022-08-25T04:04:17;12.13;;;5.95;;
36001;SDS011;22070;50.922;5.430;2022-08-25T04:06:44;8.70;;;6.38;;
36001;SDS011;22070;50.922;5.430;2022-08-25T04:09:11;9.40;;;6.68;;
36001;SDS011;22070;50.922;5.430;2022-08-25T04:11:36;12.43;;;6.70;;
36001;SDS011;22070;50.922;5.430;2022-08-25T04:14:02;12.63;;;6.50;;
36001;SDS011;22070;50.922;5.430;2022-08-25T04:16:29;9.40;;;6.33;;
36001;SDS011;22070;50.922;5.430;2022-08-25T04:18:57;9.00;;;6.85;;
36001;SDS011;22070;50.922;5.430;2022-08-25T04:21:25;9.10;;;6.40;;
36001;SDS011;22070;50.922;5.430;2022-08-25T04:23:51;8.82;;;6.65;;
36001;SDS011;22070;50.922;5.430;2022-08-25T04:26:19;12.48;;;6.60;;
36001;SDS011;22070;50.922;5.430;2022-08-25T04:28:51;10.70;;;6.85;;
36001;SDS011;22070;50.922;5.430;2022-08-25T04:31:17;9.30;;;6.63;;
36001;SDS011;22070;50.922;5.430;2022-08-25T04:33:45;11.07;;;6.03;;
36001;SDS011;22070;50.922;5.430;2022-08-25T04:36:12;8.45;;;5.85;;
36001;SDS011;22070;50.922;5.430;2022-08-25T04:38:40;10.27;;;6.30;;
36001;SDS011;22070;50.922;5.430;2022-08-25T04:41:08;14.30;;;6.68;;
36001;SDS011;22070;50.922;5.430;2022-08-25T04:43:36;10.07;;;5.90;;
36001;SDS011;22070;50.922;5.430;2022-08-25T04:46:07;8.65;;;5.85;;
36001;SDS011;22070;50.922;5.430;2022-08-25T04:48:36;12.65;;;6.10;;
36001;SDS011;22070;50.922;5.430;2022-08-25T04:51:07;10.55;;;5.85;;
36001;SDS011;22070;50.922;5.430;2022-08-25T04:53:35;8.90;;;6.00;;
36001;SDS011;22070;50.922;5.430;2022-08-25T04:56:03;8.57;;;5.73;;
36001;SDS011;22070;50.922;5.430;2022-08-25T04:58:30;7.38;;;5.72;;
36001;SDS011;22070;50.922;5.430;2022-08-25T05:01:06;9.63;;;6.17;;
36001;SDS011;22070;50.922;5.430;2022-08-25T05:03:39;7.88;;;6.30;;
36001;SDS011;22070;50.922;5.430;2022-08-25T05:06:06;13.38;;;6.38;;
36001;SDS011;22070;50.922;5.430;2022-08-25T05:08:32;10.27;;;5.63;;
36001;SDS011;22070;50.922;5.430;2022-08-25T05:11:03;7.97;;;5.72;;
36001;SDS011;22070;50.922;5.430;2022-08-25T05:13:37;7.93;;;5.90;;
36001;SDS011;22070;50.922;5.430;2022-08-25T05:16:03;12.30;;;6.30;;
36001;SDS011;22070;50.922;5.430;2022-08-25T05:18:30;6.85;;;5.70;;
36001;SDS011;22070;50.922;5.430;2022-08-25T05:21:00;11.07;;;5.30;;
36001;SDS011;22070;50.922;5.430;2022-08-25T05:23:27;8.52;;;6.07;;
36001;SDS011;22070;50.922;5.430;2022-08-25T05:25:53;10.02;;;5.78;;
36001;SDS011;22070;50.922;5.430;2022-08-25T05:28:20;6.95;;;5.47;;
36001;SDS011;22070;50.922;5.430;2022-08-25T05:30:46;7.32;;;5.40;;
36001;SDS011;22070;50.922;5.430;2022-08-25T05:33:14;8.23;;;6.10;;
36001;SDS011;22070;50.922;5.430;2022-08-25T05:35:41;10.93;;;5.90;;
36001;SDS011;22070;50.922;5.430;2022-08-25T05:38:07;8.13;;;5.50;;
36001;SDS011;22070;50.922;5.430;2022-08-25T05:40:33;10.70;;;5.77;;
36001;SDS011;22070;50.922;5.430;2022-08-25T05:42:59;6.73;;;5.30;;
36001;SDS011;22070;50.922;5.430;2022-08-25T05:45:24;9.27;;;5.30;;
36001;SDS011;22070;50.922;5.430;2022-08-25T05:47:50;11.90;;;5.77;;
36001;SDS011;22070;50.922;5.430;2022-08-25T05:50:16;8.13;;;5.57;;
36001;SDS011;22070;50.922;5.430;2022-08-25T05:52:42;6.30;;;5.40;;
36001;SDS011;22070;50.922;5.430;2022-08-25T05:55:08;7.68;;;5.70;;
36001;SDS011;22070;50.922;5.430;2022-08-25T05:57:34;9.33;;;5.07;;
36001;SDS011;22070;50.922;5.430;2022-08-25T06:00:00;13.70;;;5.53;;
36001;SDS011;22070;50.922;5.430;2022-08-25T06:02:28;8.00;;;5.30;;
36001;SDS011;22070;50.922;5.430;2022-08-25T06:05:08;9.20;;;5.10;;
36001;SDS011;22070;50.922;5.430;2022-08-25T06:07:35;8.95;;;5.22;;
36001;SDS011;22070;50.922;5.430;2022-08-25T06:10:02;13.40;;;5.88;;
36001;SDS011;22070;50.922;5.430;2022-08-25T06:12:31;14.20;;;5.20;;
36001;SDS011;22070;50.922;5.430;2022-08-25T06:14:59;11.02;;;5.22;;
36001;SDS011;22070;50.922;5.430;2022-08-25T06:17:26;10.27;;;4.75;;
36001;SDS011;22070;50.922;5.430;2022-08-25T06:19:52;21.07;;;4.83;;
36001;SDS011;22070;50.922;5.430;2022-08-25T06:22:18;11.63;;;5.00;;
36001;SDS011;22070;50.922;5.430;2022-08-25T06:24:45;8.02;;;4.28;;
36001;SDS011;22070;50.922;5.430;2022-08-25T06:27:11;7.27;;;4.53;;
36001;SDS011;22070;50.922;5.430;2022-08-25T06:29:37;9.93;;;3.90;;
36001;SDS011;22070;50.922;5.430;2022-08-25T06:32:02;9.20;;;4.70;;
36001;SDS011;22070;50.922;5.430;2022-08-25T06:34:28;8.88;;;4.28;;
36001;SDS011;22070;50.922;5.430;2022-08-25T06:36:54;9.70;;;4.30;;
36001;SDS011;22070;50.922;5.430;2022-08-25T06:39:20;9.67;;;4.30;;
36001;SDS011;22070;50.922;5.430;2022-08-25T06:41:49;6.30;;;4.20;;
36001;SDS011;22070;50.922;5.430;2022-08-25T06:44:15;7.45;;;3.90;;
36001;SDS011;22070;50.922;5.430;2022-08-25T06:46:41;7.10;;;4.40;;
36001;SDS011;22070;50.922;5.430;2022-08-25T06:49:07;10.30;;;4.40;;
36001;SDS011;22070;50.922;5.430;2022-08-25T06:51:32;8.03;;;4.10;;
36001;SDS011;22070;50.922;5.430;2022-08-25T06:54:02;5.82;;;3.78;;
36001;SDS011;22070;50.922;5.430;2022-08-25T06:56:28;10.15;;;4.15;;
36001;SDS011;22070;50.922;5.430;2022-08-25T06:58:54;6.67;;;4.27;;
36001;SDS011;22070;50.922;5.430;2022-08-25T07:01:21;6.37;;;4.33;;
36001;SDS011;22070;50.922;5.430;2022-08-25T07:03:50;7.50;;;4.10;;
36001;SDS011;22070;50.922;5.430;2022-08-25T07:06:16;11.37;;;4.20;;
36001;SDS011;22070;50.922;5.430;2022-08-25T07:08:45;11.23;;;4.13;;
36001;SDS011;22070;50.922;5.430;2022-08-25T07:11:12;8.80;;;4.18;;
36001;SDS011;22070;50.922;5.430;2022-08-25T07:16:04;6.25;;;3.97;;
36001;SDS011;22070;50.922;5.430;2022-08-25T07:18:31;5.90;;;4.15;;
36001;SDS011;22070;50.922;5.430;2022-08-25T07:23:23;9.60;;;4.32;;
36001;SDS011;22070;50.922;5.430;2022-08-25T07:30:42;6.25;;;3.40;;
36001;SDS011;22070;50.922;5.430;2022-08-25T07:33:08;11.85;;;3.90;;
36001;SDS011;22070;50.922;5.430;2022-08-25T07:35:35;7.88;;;3.85;;
36001;SDS011;22070;50.922;5.430;2022-08-25T07:42:56;11.38;;;4.15;;
36001;SDS011;22070;50.922;5.430;2022-08-25T07:45:25;7.75;;;3.67;;
36001;SDS011;22070;50.922;5.430;2022-08-25T07:47:59;9.38;;;3.53;;
36001;SDS011;22070;50.922;5.430;2022-08-25T07:50:36;6.40;;;3.20;;
36001;SDS011;22070;50.922;5.430;2022-08-25T07:53:09;12.65;;;3.80;;
36001;SDS011;22070;50.922;5.430;2022-08-25T07:55:36;8.48;;;3.80;;
36001;SDS011;22070;50.922;5.430;2022-08-25T07:58:05;10.73;;;3.53;;
36001;SDS011;22070;50.922;5.430;2022-08-25T08:00:33;7.72;;;3.55;;
36001;SDS011;22070;50.922;5.430;2022-08-25T08:03:01;6.53;;;3.72;;
36001;SDS011;22070;50.922;5.430;2022-08-25T08:05:29;5.00;;;3.60;;
36001;SDS011;22070;50.922;5.430;2022-08-25T08:07:55;6.20;;;3.58;;
36001;SDS011;22070;50.922;5.430;2022-08-25T08:10:21;8.18;;;3.60;;
36001;SDS011;22070;50.922;5.430;2022-08-25T08:12:49;5.78;;;3.30;;
36001;SDS011;22070;50.922;5.430;2022-08-25T08:15:16;5.25;;;3.50;;
36001;SDS011;22070;50.922;5.430;2022-08-25T08:17:43;7.85;;;3.58;;
36001;SDS011;22070;50.922;5.430;2022-08-25T08:20:09;5.68;;;3.53;;
36001;SDS011;22070;50.922;5.430;2022-08-25T08:25:02;9.45;;;3.65;;
36001;SDS011;22070;50.922;5.430;2022-08-25T08:27:28;11.45;;;3.95;;
36001;SDS011;22070;50.922;5.430;2022-08-25T08:29:54;7.60;;;3.43;;
36001;SDS011;22070;50.922;5.430;2022-08-25T08:32:20;9.07;;;3.72;;
36001;SDS011;22070;50.922;5.430;2022-08-25T08:34:46;8.83;;;3.53;;
36001;SDS011;22070;50.922;5.430;2022-08-25T08:37:12;7.93;;;3.70;;
36001;SDS011;22070;50.922;5.430;2022-08-25T08:39:39;13.55;;;3.90;;
36001;SDS011;22070;50.922;5.430;2022-08-25T08:45:54;7.25;;;3.55;;
36001;SDS011;22070;50.922;5.430;2022-08-25T08:53:07;8.60;;;3.35;;
36001;SDS011;22070;50.922;5.430;2022-08-25T08:55:44;6.75;;;3.60;;
36001;SDS011;22070;50.922;5.430;2022-08-25T09:01:04;5.38;;;3.33;;
36001;SDS011;22070;50.922;5.430;2022-08-25T09:03:35;7.00;;;3.55;;
36001;SDS011;22070;50.922;5.430;2022-08-25T09:06:11;4.53;;;3.35;;
36001;SDS011;22070;50.922;5.430;2022-08-25T09:08:45;6.75;;;3.47;;
36001;SDS011;22070;50.922;5.430;2022-08-25T09:17:00;3.35;;;3.05;;
36001;SDS011;22070;50.922;5.430;2022-08-25T09:22:11;4.43;;;2.60;;
36001;SDS011;22070;50.922;5.430;2022-08-25T09:30:50;5.40;;;2.80;;
36001;SDS011;22070;50.922;5.430;2022-08-25T09:33:18;4.82;;;2.22;;
36001;SDS011;22070;50.922;5.430;2022-08-25T09:35:46;3.28;;;2.35;;
36001;SDS011;22070;50.922;5.430;2022-08-25T09:38:15;7.18;;;2.50;;
36001;SDS011;22070;50.922;5.430;2022-08-25T09:40:42;4.50;;;2.40;;
36001;SDS011;22070;50.922;5.430;2022-08-25T09:43:28;3.75;;;2.53;;
36001;SDS011;22070;50.922;5.430;2022-08-25T09:46:02;3.47;;;2.20;;
36001;SDS011;22070;50.922;5.430;2022-08-25T09:48:51;2.50;;;2.30;;
36001;SDS011;22070;50.922;5.430;2022-08-25T09:51:29;5.32;;;2.63;;
36001;SDS011;22070;50.922;5.430;2022-08-25T09:53:56;3.67;;;2.42;;
36001;SDS011;22070;50.922;5.430;2022-08-25T09:56:31;2.80;;;2.60;;
36001;SDS011;22070;50.922;5.430;2022-08-25T10:01:50;3.72;;;2.28;;
36001;SDS011;22070;50.922;5.430;2022-08-25T10:04:31;6.88;;;2.42;;
36001;SDS011;22070;50.922;5.430;2022-08-25T10:07:01;3.17;;;2.38;;
36001;SDS011;22070;50.922;5.430;2022-08-25T10:09:32;4.75;;;2.72;;
36001;SDS011;22070;50.922;5.430;2022-08-25T10:12:14;2.40;;;2.15;;
36001;SDS011;22070;50.922;5.430;2022-08-25T10:14:45;3.45;;;2.38;;
36001;SDS011;22070;50.922;5.430;2022-08-25T10:17:25;6.88;;;2.47;;
36001;SDS011;22070;50.922;5.430;2022-08-25T10:22:45;3.25;;;2.53;;
36001;SDS011;22070;50.922;5.430;2022-08-25T10:25:12;3.13;;;2.20;;
36001;SDS011;22070;50.922;5.430;2022-08-25T10:30:22;5.85;;;2.78;;
36001;SDS011;22070;50.922;5.430;2022-08-25T10:49:17;4.70;;;2.95;;
36001;SDS011;22070;50.922;5.430;2022-08-25T11:08:39;11.30;;;3.38;;
36001;SDS011;22070;50.922;5.430;2022-08-25T11:10:46;5.32;;;2.80;;
36001;SDS011;22070;50.922;5.430;2022-08-25T11:13:25;3.70;;;3.40;;
36001;SDS011;22070;50.922;5.430;2022-08-25T11:16:08;5.68;;;3.20;;
36001;SDS011;22070;50.922;5.430;2022-08-25T11:18:41;6.90;;;3.47;;
36001;SDS011;22070;50.922;5.430;2022-08-25T11:21:22;6.57;;;3.30;;
36001;SDS011;22070;50.922;5.430;2022-08-25T11:24:01;7.88;;;3.85;;
36001;SDS011;22070;50.922;5.430;2022-08-25T11:26:38;3.80;;;3.13;;
36001;SDS011;22070;50.922;5.430;2022-08-25T11:29:16;10.55;;;3.60;;
36001;SDS011;22070;50.922;5.430;2022-08-25T11:31:46;7.93;;;3.50;;
36001;SDS011;22070;50.922;5.430;2022-08-25T11:34:15;5.82;;;2.90;;
36001;SDS011;22070;50.922;5.430;2022-08-25T11:36:48;7.85;;;3.60;;
36001;SDS011;22070;50.922;5.430;2022-08-25T11:58:45;6.35;;;2.75;;
36001;SDS011;22070;50.922;5.430;2022-08-25T12:09:30;3.87;;;2.90;;
36001;SDS011;22070;50.922;5.430;2022-08-25T12:11:57;5.10;;;2.30;;
36001;SDS011;22070;50.922;5.430;2022-08-25T12:40:32;5.30;;;2.70;;
36001;SDS011;22070;50.922;5.430;2022-08-25T12:43:02;8.02;;;2.80;;
36001;SDS011;22070;50.922;5.430;2022-08-25T12:45:38;3.80;;;2.63;;
36001;SDS011;22070;50.922;5.430;2022-08-25T12:51:00;3.63;;;2.47;;
36001;SDS011;22070;50.922;5.430;2022-08-25T12:56:54;6.95;;;2.70;;
36001;SDS011;22070;50.922;5.430;2022-08-25T13:12:46;3.78;;;3.05;;
36001;SDS011;22070;50.922;5.430;2022-08-25T13:18:11;4.43;;;2.72;;
36001;SDS011;22070;50.922;5.430;2022-08-25T13:20:37;5.40;;;2.97;;
36001;SDS011;22070;50.922;5.430;2022-08-25T13:25:29;12.13;;;3.15;;
36001;SDS011;22070;50.922;5.430;2022-08-25T13:27:57;2.78;;;2.58;;
36001;SDS011;22070;50.922;5.430;2022-08-25T13:32:55;3.47;;;3.17;;
36001;SDS011;22070;50.922;5.430;2022-08-25T13:35:26;7.75;;;2.78;;
36001;SDS011;22070;50.922;5.430;2022-08-25T13:38:10;8.00;;;3.20;;
36001;SDS011;22070;50.922;5.430;2022-08-25T13:40:41;9.43;;;3.10;;
36001;SDS011;22070;50.922;5.430;2022-08-25T13:45:37;6.90;;;2.70;;
36001;SDS011;22070;50.922;5.430;2022-08-25T13:48:11;6.30;;;2.47;;
36001;SDS011;22070;50.922;5.430;2022-08-25T13:50:39;2.70;;;2.50;;
36001;SDS011;22070;50.922;5.430;2022-08-25T13:53:12;3.88;;;3.00;;
36001;SDS011;22070;50.922;5.430;2022-08-25T13:58:42;4.63;;;2.70;;
36001;SDS011;22070;50.922;5.430;2022-08-25T14:01:29;9.10;;;2.75;;
36001;SDS011;22070;50.922;5.430;2022-08-25T14:07:14;9.20;;;2.97;;
36001;SDS011;22070;50.922;5.430;2022-08-25T14:09:54;7.68;;;2.80;;
36001;SDS011;22070;50.922;5.430;2022-08-25T14:12:28;4.10;;;2.47;;
36001;SDS011;22070;50.922;5.430;2022-08-25T14:17:36;3.03;;;2.72;;
36001;SDS011;22070;50.922;5.430;2022-08-25T14:20:05;3.05;;;2.35;;
36001;SDS011;22070;50.922;5.430;2022-08-25T14:22:53;7.53;;;2.83;;
36001;SDS011;22070;50.922;5.430;2022-08-25T14:25:22;3.78;;;3.10;;
36001;SDS011;22070;50.922;5.430;2022-08-25T14:28:10;5.60;;;3.20;;
36001;SDS011;22070;50.922;5.430;2022-08-25T14:30:39;8.63;;;3.10;;
36001;SDS011;22070;50.922;5.430;2022-08-25T14:33:07;5.63;;;2.50;;
36001;SDS011;22070;50.922;5.430;2022-08-25T14:35:33;4.38;;;2.72;;
36001;SDS011;22070;50.922;5.430;2022-08-25T14:38:00;4.35;;;2.85;;
36001;SDS011;22070;50.922;5.430;2022-08-25T14:40:35;4.40;;;2.90;;
36001;SDS011;22070;50.922;5.430;2022-08-25T14:43:03;7.72;;;2.58;;
36001;SDS011;22070;50.922;5.430;2022-08-25T14:45:29;5.18;;;3.10;;
36001;SDS011;22070;50.922;5.430;2022-08-25T14:47:56;9.85;;;3.10;;
36001;SDS011;22070;50.922;5.430;2022-08-25T14:50:27;7.60;;;2.83;;
36001;SDS011;22070;50.922;5.430;2022-08-25T14:52:53;5.40;;;2.92;;
36001;SDS011;22070;50.922;5.430;2022-08-25T14:55:19;16.63;;;3.10;;
36001;SDS011;22070;50.922;5.430;2022-08-25T14:57:45;6.07;;;2.80;;
36001;SDS011;22070;50.922;5.430;2022-08-25T15:00:11;6.05;;;2.60;;
36001;SDS011;22070;50.922;5.430;2022-08-25T15:02:38;4.63;;;2.70;;
36001;SDS011;22070;50.922;5.430;2022-08-25T15:05:06;6.90;;;2.65;;
36001;SDS011;22070;50.922;5.430;2022-08-25T15:07:35;8.30;;;2.95;;
36001;SDS011;22070;50.922;5.430;2022-08-25T15:10:20;3.70;;;2.70;;
36001;SDS011;22070;50.922;5.430;2022-08-25T15:12:46;4.25;;;2.72;;
36001;SDS011;22070;50.922;5.430;2022-08-25T15:17:38;5.18;;;2.80;;
36001;SDS011;22070;50.922;5.430;2022-08-25T15:20:05;4.78;;;2.85;;
36001;SDS011;22070;50.922;5.430;2022-08-25T15:22:31;8.38;;;2.95;;
36001;SDS011;22070;50.922;5.430;2022-08-25T15:27:22;2.92;;;2.58;;
36001;SDS011;22070;50.922;5.430;2022-08-25T15:32:13;5.00;;;3.03;;
36001;SDS011;22070;50.922;5.430;2022-08-25T15:37:06;5.60;;;3.10;;
36001;SDS011;22070;50.922;5.430;2022-08-25T15:39:35;4.07;;;2.90;;
36001;SDS011;22070;50.922;5.430;2022-08-25T15:42:02;2.92;;;2.67;;
36001;SDS011;22070;50.922;5.430;2022-08-25T15:46:53;4.80;;;3.08;;
36001;SDS011;22070;50.922;5.430;2022-08-25T15:51:45;4.50;;;2.83;;
36001;SDS011;22070;50.922;5.430;2022-08-25T15:56:38;4.22;;;3.00;;
36001;SDS011;22070;50.922;5.430;2022-08-25T15:59:04;5.03;;;2.75;;
36001;SDS011;22070;50.922;5.430;2022-08-25T16:01:30;9.35;;;3.17;;
36001;SDS011;22070;50.922;5.430;2022-08-25T16:03:57;5.30;;;2.60;;
36001;SDS011;22070;50.922;5.430;2022-08-25T16:06:23;8.02;;;2.85;;
36001;SDS011;22070;50.922;5.430;2022-08-25T16:08:50;5.15;;;2.80;;
36001;SDS011;22070;50.922;5.430;2022-08-25T16:13:46;8.77;;;3.08;;
36001;SDS011;22070;50.922;5.430;2022-08-25T16:16:13;5.07;;;3.00;;
36001;SDS011;22070;50.922;5.430;2022-08-25T16:18:40;6.65;;;2.80;;
36001;SDS011;22070;50.922;5.430;2022-08-25T16:21:08;5.65;;;2.78;;
36001;SDS011;22070;50.922;5.430;2022-08-25T16:23:34;7.15;;;3.10;;
36001;SDS011;22070;50.922;5.430;2022-08-25T16:28:27;8.18;;;3.33;;
36001;SDS011;22070;50.922;5.430;2022-08-25T16:33:19;7.45;;;3.25;;
36001;SDS011;22070;50.922;5.430;2022-08-25T16:35:45;3.17;;;2.88;;
36001;SDS011;22070;50.922;5.430;2022-08-25T16:38:11;8.95;;;2.75;;
36001;SDS011;22070;50.922;5.430;2022-08-25T16:40:41;4.72;;;2.83;;
36001;SDS011;22070;50.922;5.430;2022-08-25T16:43:07;4.03;;;3.10;;
36001;SDS011;22070;50.922;5.430;2022-08-25T16:45:34;5.35;;;3.00;;
36001;SDS011;22070;50.922;5.430;2022-08-25T16:48:00;4.75;;;2.70;;
36001;SDS011;22070;50.922;5.430;2022-08-25T16:50:26;3.40;;;2.90;;
36001;SDS011;22070;50.922;5.430;2022-08-25T16:52:54;8.23;;;3.45;;
36001;SDS011;22070;50.922;5.430;2022-08-25T16:55:39;3.83;;;2.40;;
36001;SDS011;22070;50.922;5.430;2022-08-25T17:00:30;3.92;;;2.88;;
36001;SDS011;22070;50.922;5.430;2022-08-25T17:03:00;5.30;;;3.20;;
36001;SDS011;22070;50.922;5.430;2022-08-25T17:05:28;4.32;;;2.90;;
36001;SDS011;22070;50.922;5.430;2022-08-25T17:07:57;4.35;;;2.88;;
36001;SDS011;22070;50.922;5.430;2022-08-25T17:10:43;4.57;;;3.10;;
36001;SDS011;22070;50.922;5.430;2022-08-25T17:13:09;8.32;;;3.70;;
36001;SDS011;22070;50.922;5.430;2022-08-25T17:15:40;6.68;;;3.15;;
36001;SDS011;22070;50.922;5.430;2022-08-25T17:18:08;8.75;;;3.20;;
36001;SDS011;22070;50.922;5.430;2022-08-25T17:20:34;7.82;;;2.90;;
36001;SDS011;22070;50.922;5.430;2022-08-25T17:23:01;10.98;;;3.20;;
36001;SDS011;22070;50.922;5.430;2022-08-25T17:25:27;4.47;;;2.88;;
36001;SDS011;22070;50.922;5.430;2022-08-25T17:32:44;11.68;;;4.22;;
36001;SDS011;22070;50.922;5.430;2022-08-25T17:35:09;5.93;;;3.10;;
36001;SDS011;22070;50.922;5.430;2022-08-25T17:37:35;6.50;;;3.50;;
36001;SDS011;22070;50.922;5.430;2022-08-25T17:40:03;3.58;;;3.20;;
36001;SDS011;22070;50.922;5.430;2022-08-25T17:42:30;4.78;;;3.10;;
36001;SDS011;22070;50.922;5.430;2022-08-25T17:44:56;7.25;;;3.30;;
36001;SDS011;22070;50.922;5.430;2022-08-25T17:47:22;7.78;;;3.10;;
36001;SDS011;22070;50.922;5.430;2022-08-25T17:49:47;7.35;;;2.97;;
36001;SDS011;22070;50.922;5.430;2022-08-25T17:52:13;9.77;;;3.30;;
36001;SDS011;22070;50.922;5.430;2022-08-25T17:54:41;5.85;;;3.33;;
36001;SDS011;22070;50.922;5.430;2022-08-25T17:57:06;5.53;;;3.25;;
36001;SDS011;22070;50.922;5.430;2022-08-25T17:59:32;6.75;;;3.17;;
36001;SDS011;22070;50.922;5.430;2022-08-25T18:01:58;4.50;;;3.13;;
36001;SDS011;22070;50.922;5.430;2022-08-25T18:04:24;7.07;;;3.33;;
36001;SDS011;22070;50.922;5.430;2022-08-25T18:06:50;7.03;;;3.60;;
36001;SDS011;22070;50.922;5.430;2022-08-25T18:09:16;8.10;;;3.55;;
36001;SDS011;22070;50.922;5.430;2022-08-25T18:14:07;9.68;;;3.75;;
36001;SDS011;22070;50.922;5.430;2022-08-25T18:16:34;8.60;;;3.20;;
36001;SDS011;22070;50.922;5.430;2022-08-25T18:19:00;3.83;;;3.47;;
36001;SDS011;22070;50.922;5.430;2022-08-25T18:21:26;4.10;;;3.22;;
36001;SDS011;22070;50.922;5.430;2022-08-25T18:23:52;5.65;;;3.35;;
36001;SDS011;22070;50.922;5.430;2022-08-25T18:26:20;3.70;;;3.30;;
36001;SDS011;22070;50.922;5.430;2022-08-25T18:28:45;4.03;;;3.08;;
36001;SDS011;22070;50.922;5.430;2022-08-25T18:31:11;6.47;;;3.72;;
36001;SDS011;22070;50.922;5.430;2022-08-25T18:33:37;5.28;;;3.55;;